sensor_id;sensor_type;location;lat;lon;timestamp;P1;durP1;ratioP1;P2;durP2;ratioP2
10269;SDS011;5180;50.832;5.390;2022-08-16T00:00:05;39.63;;;37.38;;
10269;SDS011;5180;50.832;5.390;2022-08-16T00:02:34;26.85;;;25.05;;
10269;SDS011;5180;50.832;5.390;2022-08-16T00:05:00;34.45;;;32.40;;
10269;SDS011;5180;50.832;5.390;2022-08-16T00:07:27;53.17;;;50.13;;
10269;SDS011;5180;50.832;5.390;2022-08-16T00:09:53;47.70;;;44.97;;
10269;SDS011;5180;50.832;5.390;2022-08-16T00:12:19;75.55;;;71.30;;
10269;SDS011;5180;50.832;5.390;2022-08-16T00:14:45;63.38;;;59.60;;
10269;SDS011;5180;50.832;5.390;2022-08-16T00:17:10;39.28;;;36.97;;
10269;SDS011;5180;50.832;5.390;2022-08-16T00:19:36;44.53;;;41.72;;
10269;SDS011;5180;50.832;5.390;2022-08-16T00:22:02;18.35;;;17.15;;
10269;SDS011;5180;50.832;5.390;2022-08-16T00:24:29;27.45;;;25.92;;
10269;SDS011;5180;50.832;5.390;2022-08-16T00:26:55;38.30;;;36.13;;
10269;SDS011;5180;50.832;5.390;2022-08-16T00:29:21;36.15;;;33.92;;
10269;SDS011;5180;50.832;5.390;2022-08-16T00:31:47;30.45;;;28.73;;
10269;SDS011;5180;50.832;5.390;2022-08-16T00:34:14;34.67;;;32.58;;
10269;SDS011;5180;50.832;5.390;2022-08-16T00:36:40;35.20;;;33.10;;
10269;SDS011;5180;50.832;5.390;2022-08-16T00:39:06;29.70;;;27.77;;
10269;SDS011;5180;50.832;5.390;2022-08-16T00:41:32;31.63;;;29.73;;
10269;SDS011;5180;50.832;5.390;2022-08-16T00:43:59;25.48;;;23.70;;
10269;SDS011;5180;50.832;5.390;2022-08-16T00:46:35;27.05;;;25.42;;
10269;SDS011;5180;50.832;5.390;2022-08-16T00:49:06;26.17;;;24.70;;
10269;SDS011;5180;50.832;5.390;2022-08-16T00:51:34;28.27;;;26.48;;
10269;SDS011;5180;50.832;5.390;2022-08-16T00:53:59;24.88;;;23.38;;
10269;SDS011;5180;50.832;5.390;2022-08-16T00:56:29;27.58;;;25.90;;
10269;SDS011;5180;50.832;5.390;2022-08-16T00:58:55;28.02;;;26.08;;
10269;SDS011;5180;50.832;5.390;2022-08-16T01:01:21;24.67;;;23.13;;
10269;SDS011;5180;50.832;5.390;2022-08-16T01:03:48;29.15;;;27.35;;
10269;SDS011;5180;50.832;5.390;2022-08-16T01:06:16;30.25;;;28.40;;
10269;SDS011;5180;50.832;5.390;2022-08-16T01:08:46;34.25;;;32.25;;
10269;SDS011;5180;50.832;5.390;2022-08-16T01:11:14;35.05;;;32.97;;
10269;SDS011;5180;50.832;5.390;2022-08-16T01:13:40;45.70;;;42.75;;
10269;SDS011;5180;50.832;5.390;2022-08-16T01:16:09;52.28;;;49.20;;
10269;SDS011;5180;50.832;5.390;2022-08-16T01:18:43;67.90;;;63.90;;
10269;SDS011;5180;50.832;5.390;2022-08-16T01:26:32;34.20;;;32.22;;
10269;SDS011;5180;50.832;5.390;2022-08-16T01:29:02;54.75;;;51.33;;
10269;SDS011;5180;50.832;5.390;2022-08-16T01:31:32;66.07;;;61.72;;
10269;SDS011;5180;50.832;5.390;2022-08-16T01:33:57;65.85;;;62.03;;
10269;SDS011;5180;50.832;5.390;2022-08-16T01:36:23;33.05;;;31.15;;
10269;SDS011;5180;50.832;5.390;2022-08-16T01:38:49;30.42;;;28.33;;
10269;SDS011;5180;50.832;5.390;2022-08-16T01:41:26;25.30;;;23.67;;
10269;SDS011;5180;50.832;5.390;2022-08-16T01:43:54;64.70;;;60.70;;
10269;SDS011;5180;50.832;5.390;2022-08-16T01:46:22;74.05;;;69.60;;
10269;SDS011;5180;50.832;5.390;2022-08-16T01:48:52;28.77;;;27.08;;
10269;SDS011;5180;50.832;5.390;2022-08-16T01:51:27;33.42;;;31.42;;
10269;SDS011;5180;50.832;5.390;2022-08-16T01:53:53;32.63;;;30.33;;
10269;SDS011;5180;50.832;5.390;2022-08-16T01:56:19;38.60;;;36.00;;
10269;SDS011;5180;50.832;5.390;2022-08-16T01:58:46;40.60;;;37.97;;
10269;SDS011;5180;50.832;5.390;2022-08-16T02:01:12;51.83;;;48.53;;
10269;SDS011;5180;50.832;5.390;2022-08-16T02:03:37;62.33;;;58.53;;
10269;SDS011;5180;50.832;5.390;2022-08-16T02:06:03;68.47;;;64.40;;
10269;SDS011;5180;50.832;5.390;2022-08-16T02:08:29;56.88;;;53.35;;
10269;SDS011;5180;50.832;5.390;2022-08-16T02:10:55;65.47;;;61.35;;
10269;SDS011;5180;50.832;5.390;2022-08-16T02:13:21;64.13;;;60.15;;
10269;SDS011;5180;50.832;5.390;2022-08-16T02:15:47;54.80;;;51.38;;
10269;SDS011;5180;50.832;5.390;2022-08-16T02:18:13;45.72;;;42.88;;
10269;SDS011;5180;50.832;5.390;2022-08-16T02:20:40;43.20;;;40.60;;
10269;SDS011;5180;50.832;5.390;2022-08-16T02:23:08;40.83;;;38.38;;
10269;SDS011;5180;50.832;5.390;2022-08-16T02:25:34;27.27;;;25.67;;
10269;SDS011;5180;50.832;5.390;2022-08-16T02:28:00;19.63;;;18.38;;
10269;SDS011;5180;50.832;5.390;2022-08-16T02:30:28;20.25;;;18.85;;
10269;SDS011;5180;50.832;5.390;2022-08-16T02:32:55;19.92;;;18.70;;
10269;SDS011;5180;50.832;5.390;2022-08-16T02:35:22;19.90;;;18.65;;
10269;SDS011;5180;50.832;5.390;2022-08-16T02:37:50;21.10;;;19.75;;
10269;SDS011;5180;50.832;5.390;2022-08-16T02:40:17;29.60;;;27.60;;
10269;SDS011;5180;50.832;5.390;2022-08-16T02:42:43;21.42;;;20.05;;
10269;SDS011;5180;50.832;5.390;2022-08-16T02:45:09;20.40;;;19.10;;
10269;SDS011;5180;50.832;5.390;2022-08-16T02:47:35;22.92;;;21.42;;
10269;SDS011;5180;50.832;5.390;2022-08-16T02:50:01;21.98;;;20.33;;
10269;SDS011;5180;50.832;5.390;2022-08-16T02:52:27;29.58;;;27.75;;
10269;SDS011;5180;50.832;5.390;2022-08-16T02:54:53;38.70;;;36.30;;
10269;SDS011;5180;50.832;5.390;2022-08-16T02:57:19;50.25;;;46.55;;
10269;SDS011;5180;50.832;5.390;2022-08-16T02:59:45;58.72;;;55.08;;
10269;SDS011;5180;50.832;5.390;2022-08-16T03:02:10;81.78;;;76.90;;
10269;SDS011;5180;50.832;5.390;2022-08-16T03:04:37;87.95;;;82.95;;
10269;SDS011;5180;50.832;5.390;2022-08-16T03:07:04;74.88;;;70.63;;
10269;SDS011;5180;50.832;5.390;2022-08-16T03:09:31;68.70;;;64.70;;
10269;SDS011;5180;50.832;5.390;2022-08-16T03:11:57;63.05;;;59.30;;
10269;SDS011;5180;50.832;5.390;2022-08-16T03:14:23;67.97;;;64.13;;
10269;SDS011;5180;50.832;5.390;2022-08-16T03:16:49;63.55;;;59.60;;
10269;SDS011;5180;50.832;5.390;2022-08-16T03:19:14;67.18;;;63.35;;
10269;SDS011;5180;50.832;5.390;2022-08-16T03:21:40;56.00;;;52.58;;
10269;SDS011;5180;50.832;5.390;2022-08-16T03:24:06;49.83;;;46.92;;
10269;SDS011;5180;50.832;5.390;2022-08-16T03:26:32;34.85;;;32.80;;
10269;SDS011;5180;50.832;5.390;2022-08-16T03:28:58;26.98;;;25.38;;
10269;SDS011;5180;50.832;5.390;2022-08-16T03:31:24;24.98;;;23.45;;
10269;SDS011;5180;50.832;5.390;2022-08-16T03:33:50;30.00;;;27.95;;
10269;SDS011;5180;50.832;5.390;2022-08-16T03:36:16;32.92;;;31.00;;
10269;SDS011;5180;50.832;5.390;2022-08-16T03:38:42;28.65;;;26.83;;
10269;SDS011;5180;50.832;5.390;2022-08-16T03:41:08;29.60;;;27.80;;
10269;SDS011;5180;50.832;5.390;2022-08-16T03:43:34;33.70;;;31.50;;
10269;SDS011;5180;50.832;5.390;2022-08-16T03:46:00;29.17;;;27.42;;
10269;SDS011;5180;50.832;5.390;2022-08-16T03:48:27;28.60;;;26.83;;
10269;SDS011;5180;50.832;5.390;2022-08-16T03:50:59;28.67;;;26.85;;
10269;SDS011;5180;50.832;5.390;2022-08-16T03:53:26;30.63;;;28.70;;
10269;SDS011;5180;50.832;5.390;2022-08-16T03:55:53;28.35;;;26.52;;
10269;SDS011;5180;50.832;5.390;2022-08-16T03:58:18;26.80;;;25.08;;
10269;SDS011;5180;50.832;5.390;2022-08-16T04:00:44;29.65;;;27.77;;
10269;SDS011;5180;50.832;5.390;2022-08-16T04:03:10;36.05;;;33.55;;
10269;SDS011;5180;50.832;5.390;2022-08-16T04:05:37;55.42;;;51.88;;
10269;SDS011;5180;50.832;5.390;2022-08-16T04:08:06;41.60;;;39.10;;
10269;SDS011;5180;50.832;5.390;2022-08-16T04:10:32;56.03;;;52.40;;
10269;SDS011;5180;50.832;5.390;2022-08-16T04:12:58;70.68;;;66.47;;
10269;SDS011;5180;50.832;5.390;2022-08-16T04:15:24;56.83;;;53.45;;
10269;SDS011;5180;50.832;5.390;2022-08-16T04:17:53;59.22;;;55.53;;
10269;SDS011;5180;50.832;5.390;2022-08-16T04:20:19;57.13;;;53.45;;
10269;SDS011;5180;50.832;5.390;2022-08-16T04:22:45;51.85;;;48.72;;
10269;SDS011;5180;50.832;5.390;2022-08-16T04:25:11;45.83;;;43.13;;
10269;SDS011;5180;50.832;5.390;2022-08-16T04:27:38;39.63;;;37.22;;
10269;SDS011;5180;50.832;5.390;2022-08-16T04:30:06;40.90;;;38.30;;
10269;SDS011;5180;50.832;5.390;2022-08-16T04:32:35;36.92;;;34.67;;
10269;SDS011;5180;50.832;5.390;2022-08-16T04:35:01;31.95;;;29.85;;
10269;SDS011;5180;50.832;5.390;2022-08-16T04:37:28;33.80;;;31.65;;
10269;SDS011;5180;50.832;5.390;2022-08-16T04:39:54;49.63;;;46.47;;
10269;SDS011;5180;50.832;5.390;2022-08-16T04:42:19;69.60;;;65.22;;
10269;SDS011;5180;50.832;5.390;2022-08-16T04:44:45;80.93;;;75.97;;
10269;SDS011;5180;50.832;5.390;2022-08-16T04:47:11;84.10;;;78.72;;
10269;SDS011;5180;50.832;5.390;2022-08-16T04:49:37;54.60;;;51.17;;
10269;SDS011;5180;50.832;5.390;2022-08-16T04:52:03;91.82;;;86.35;;
10269;SDS011;5180;50.832;5.390;2022-08-16T04:54:29;97.95;;;92.13;;
10269;SDS011;5180;50.832;5.390;2022-08-16T04:56:55;102.88;;;96.57;;
10269;SDS011;5180;50.832;5.390;2022-08-16T04:59:20;105.97;;;99.43;;
10269;SDS011;5180;50.832;5.390;2022-08-16T05:01:46;101.38;;;95.03;;
10269;SDS011;5180;50.832;5.390;2022-08-16T05:04:12;132.02;;;123.80;;
10269;SDS011;5180;50.832;5.390;2022-08-16T05:06:38;137.85;;;129.70;;
10269;SDS011;5180;50.832;5.390;2022-08-16T05:09:03;67.03;;;62.78;;
10269;SDS011;5180;50.832;5.390;2022-08-16T05:11:30;78.68;;;74.05;;
10269;SDS011;5180;50.832;5.390;2022-08-16T05:13:56;45.28;;;42.47;;
10269;SDS011;5180;50.832;5.390;2022-08-16T05:16:26;94.03;;;88.60;;
10269;SDS011;5180;50.832;5.390;2022-08-16T05:18:54;45.88;;;43.05;;
10269;SDS011;5180;50.832;5.390;2022-08-16T05:21:22;58.50;;;55.17;;
10269;SDS011;5180;50.832;5.390;2022-08-16T05:23:49;36.90;;;34.53;;
10269;SDS011;5180;50.832;5.390;2022-08-16T05:26:15;24.60;;;23.08;;
10269;SDS011;5180;50.832;5.390;2022-08-16T05:28:42;28.05;;;26.17;;
10269;SDS011;5180;50.832;5.390;2022-08-16T05:31:07;23.25;;;21.88;;
10269;SDS011;5180;50.832;5.390;2022-08-16T05:33:33;39.92;;;37.55;;
10269;SDS011;5180;50.832;5.390;2022-08-16T05:35:58;26.30;;;24.67;;
10269;SDS011;5180;50.832;5.390;2022-08-16T05:38:24;26.92;;;25.30;;
10269;SDS011;5180;50.832;5.390;2022-08-16T05:40:55;26.58;;;24.90;;
10269;SDS011;5180;50.832;5.390;2022-08-16T05:43:21;53.92;;;50.75;;
10269;SDS011;5180;50.832;5.390;2022-08-16T05:45:47;47.47;;;44.72;;
10269;SDS011;5180;50.832;5.390;2022-08-16T05:48:16;41.63;;;39.13;;
10269;SDS011;5180;50.832;5.390;2022-08-16T05:50:42;40.45;;;38.00;;
10269;SDS011;5180;50.832;5.390;2022-08-16T05:53:08;46.78;;;43.83;;
10269;SDS011;5180;50.832;5.390;2022-08-16T05:55:34;45.00;;;42.33;;
10269;SDS011;5180;50.832;5.390;2022-08-16T05:58:00;18.00;;;16.80;;
10269;SDS011;5180;50.832;5.390;2022-08-16T06:00:26;48.97;;;45.88;;
10269;SDS011;5180;50.832;5.390;2022-08-16T06:02:51;56.17;;;52.70;;
10269;SDS011;5180;50.832;5.390;2022-08-16T06:05:17;45.40;;;42.58;;
10269;SDS011;5180;50.832;5.390;2022-08-16T06:07:43;33.42;;;31.38;;
10269;SDS011;5180;50.832;5.390;2022-08-16T06:10:10;25.55;;;23.98;;
10269;SDS011;5180;50.832;5.390;2022-08-16T06:12:36;6.63;;;6.05;;
10269;SDS011;5180;50.832;5.390;2022-08-16T06:15:04;12.13;;;11.38;;
10269;SDS011;5180;50.832;5.390;2022-08-16T06:17:33;12.27;;;11.55;;
10269;SDS011;5180;50.832;5.390;2022-08-16T06:19:59;5.95;;;5.43;;
10269;SDS011;5180;50.832;5.390;2022-08-16T06:22:24;5.38;;;4.75;;
10269;SDS011;5180;50.832;5.390;2022-08-16T06:24:50;5.65;;;4.85;;
10269;SDS011;5180;50.832;5.390;2022-08-16T06:27:16;5.30;;;4.80;;
10269;SDS011;5180;50.832;5.390;2022-08-16T06:29:41;6.03;;;4.55;;
10269;SDS011;5180;50.832;5.390;2022-08-16T06:32:10;5.53;;;5.00;;
10269;SDS011;5180;50.832;5.390;2022-08-16T06:34:36;6.78;;;6.28;;
10269;SDS011;5180;50.832;5.390;2022-08-16T06:37:03;6.28;;;5.65;;
10269;SDS011;5180;50.832;5.390;2022-08-16T06:39:29;5.57;;;5.07;;
10269;SDS011;5180;50.832;5.390;2022-08-16T06:41:55;5.82;;;5.22;;
10269;SDS011;5180;50.832;5.390;2022-08-16T06:44:21;8.20;;;6.20;;
10269;SDS011;5180;50.832;5.390;2022-08-16T06:46:47;7.47;;;6.68;;
10269;SDS011;5180;50.832;5.390;2022-08-16T06:49:13;6.97;;;6.30;;
10269;SDS011;5180;50.832;5.390;2022-08-16T06:51:40;8.30;;;7.60;;
10269;SDS011;5180;50.832;5.390;2022-08-16T06:54:07;6.70;;;6.10;;
10269;SDS011;5180;50.832;5.390;2022-08-16T06:56:34;6.28;;;5.68;;
10269;SDS011;5180;50.832;5.390;2022-08-16T06:59:00;6.43;;;5.82;;
10269;SDS011;5180;50.832;5.390;2022-08-16T07:01:26;7.40;;;6.28;;
10269;SDS011;5180;50.832;5.390;2022-08-16T07:03:52;7.82;;;7.05;;
10269;SDS011;5180;50.832;5.390;2022-08-16T07:06:18;6.78;;;6.18;;
10269;SDS011;5180;50.832;5.390;2022-08-16T07:08:45;7.32;;;5.18;;
10269;SDS011;5180;50.832;5.390;2022-08-16T07:11:12;7.50;;;4.95;;
10269;SDS011;5180;50.832;5.390;2022-08-16T07:13:39;5.35;;;4.85;;
10269;SDS011;5180;50.832;5.390;2022-08-16T07:16:05;5.25;;;4.50;;
10269;SDS011;5180;50.832;5.390;2022-08-16T07:18:36;5.93;;;4.35;;
10269;SDS011;5180;50.832;5.390;2022-08-16T07:21:01;4.95;;;4.45;;
10269;SDS011;5180;50.832;5.390;2022-08-16T07:23:27;4.88;;;4.45;;
10269;SDS011;5180;50.832;5.390;2022-08-16T07:25:53;5.05;;;4.53;;
10269;SDS011;5180;50.832;5.390;2022-08-16T07:28:19;4.82;;;4.32;;
10269;SDS011;5180;50.832;5.390;2022-08-16T07:30:45;5.53;;;4.75;;
10269;SDS011;5180;50.832;5.390;2022-08-16T07:33:12;4.75;;;4.03;;
10269;SDS011;5180;50.832;5.390;2022-08-16T07:35:38;4.93;;;4.15;;
10269;SDS011;5180;50.832;5.390;2022-08-16T07:38:05;4.60;;;4.20;;
10269;SDS011;5180;50.832;5.390;2022-08-16T07:40:31;6.07;;;4.30;;
10269;SDS011;5180;50.832;5.390;2022-08-16T07:42:58;4.57;;;4.15;;
10269;SDS011;5180;50.832;5.390;2022-08-16T07:45:24;4.72;;;4.32;;
10269;SDS011;5180;50.832;5.390;2022-08-16T07:47:50;4.40;;;4.00;;
10269;SDS011;5180;50.832;5.390;2022-08-16T07:50:15;4.57;;;4.18;;
10269;SDS011;5180;50.832;5.390;2022-08-16T07:52:42;4.50;;;4.13;;
10269;SDS011;5180;50.832;5.390;2022-08-16T07:55:09;5.75;;;4.70;;
10269;SDS011;5180;50.832;5.390;2022-08-16T07:57:37;5.13;;;4.20;;
10269;SDS011;5180;50.832;5.390;2022-08-16T08:00:04;5.60;;;5.03;;
10269;SDS011;5180;50.832;5.390;2022-08-16T08:02:31;5.05;;;4.65;;
10269;SDS011;5180;50.832;5.390;2022-08-16T08:04:56;4.85;;;4.40;;
10269;SDS011;5180;50.832;5.390;2022-08-16T08:07:23;5.95;;;4.90;;
10269;SDS011;5180;50.832;5.390;2022-08-16T08:09:48;5.47;;;4.88;;
10269;SDS011;5180;50.832;5.390;2022-08-16T08:12:15;6.90;;;4.28;;
10269;SDS011;5180;50.832;5.390;2022-08-16T08:14:43;6.85;;;4.10;;
10269;SDS011;5180;50.832;5.390;2022-08-16T08:17:10;5.03;;;4.55;;
10269;SDS011;5180;50.832;5.390;2022-08-16T08:19:36;6.03;;;4.40;;
10269;SDS011;5180;50.832;5.390;2022-08-16T08:22:05;4.55;;;4.15;;
10269;SDS011;5180;50.832;5.390;2022-08-16T08:24:34;4.68;;;4.07;;
10269;SDS011;5180;50.832;5.390;2022-08-16T08:27:03;5.47;;;3.92;;
10269;SDS011;5180;50.832;5.390;2022-08-16T08:29:32;4.97;;;4.05;;
10269;SDS011;5180;50.832;5.390;2022-08-16T08:31:58;6.38;;;4.28;;
10269;SDS011;5180;50.832;5.390;2022-08-16T08:34:25;5.82;;;4.00;;
10269;SDS011;5180;50.832;5.390;2022-08-16T08:36:51;7.85;;;4.57;;
10269;SDS011;5180;50.832;5.390;2022-08-16T08:39:17;4.47;;;3.92;;
10269;SDS011;5180;50.832;5.390;2022-08-16T08:41:43;5.40;;;4.35;;
10269;SDS011;5180;50.832;5.390;2022-08-16T08:44:09;5.03;;;4.20;;
10269;SDS011;5180;50.832;5.390;2022-08-16T08:46:35;6.43;;;3.80;;
10269;SDS011;5180;50.832;5.390;2022-08-16T08:49:01;5.95;;;4.20;;
10269;SDS011;5180;50.832;5.390;2022-08-16T08:51:27;4.57;;;4.13;;
10269;SDS011;5180;50.832;5.390;2022-08-16T08:53:54;7.25;;;4.60;;
10269;SDS011;5180;50.832;5.390;2022-08-16T08:56:19;4.30;;;3.90;;
10269;SDS011;5180;50.832;5.390;2022-08-16T08:58:45;4.15;;;3.67;;
10269;SDS011;5180;50.832;5.390;2022-08-16T09:01:11;5.10;;;3.58;;
10269;SDS011;5180;50.832;5.390;2022-08-16T09:03:37;4.18;;;3.75;;
10269;SDS011;5180;50.832;5.390;2022-08-16T09:06:04;5.97;;;3.78;;
10269;SDS011;5180;50.832;5.390;2022-08-16T09:08:32;8.48;;;3.78;;
10269;SDS011;5180;50.832;5.390;2022-08-16T09:10:58;5.85;;;3.90;;
10269;SDS011;5180;50.832;5.390;2022-08-16T09:13:25;4.63;;;4.22;;
10269;SDS011;5180;50.832;5.390;2022-08-16T09:15:52;3.80;;;3.22;;
10269;SDS011;5180;50.832;5.390;2022-08-16T09:18:19;5.93;;;4.00;;
10269;SDS011;5180;50.832;5.390;2022-08-16T09:20:49;4.68;;;3.65;;
10269;SDS011;5180;50.832;5.390;2022-08-16T09:23:19;3.78;;;3.40;;
10269;SDS011;5180;50.832;5.390;2022-08-16T09:25:46;4.60;;;4.05;;
10269;SDS011;5180;50.832;5.390;2022-08-16T09:28:12;4.03;;;3.63;;
10269;SDS011;5180;50.832;5.390;2022-08-16T09:30:39;6.18;;;3.65;;
10269;SDS011;5180;50.832;5.390;2022-08-16T09:33:05;5.22;;;3.50;;
10269;SDS011;5180;50.832;5.390;2022-08-16T09:35:32;4.93;;;3.55;;
10269;SDS011;5180;50.832;5.390;2022-08-16T09:37:58;4.15;;;3.40;;
10269;SDS011;5180;50.832;5.390;2022-08-16T09:40:24;4.05;;;3.65;;
10269;SDS011;5180;50.832;5.390;2022-08-16T09:42:49;4.47;;;3.22;;
10269;SDS011;5180;50.832;5.390;2022-08-16T09:45:17;4.45;;;3.28;;
10269;SDS011;5180;50.832;5.390;2022-08-16T09:47:44;4.05;;;3.00;;
10269;SDS011;5180;50.832;5.390;2022-08-16T09:50:11;3.92;;;3.40;;
10269;SDS011;5180;50.832;5.390;2022-08-16T09:52:38;7.85;;;3.83;;
10269;SDS011;5180;50.832;5.390;2022-08-16T09:55:05;4.00;;;3.40;;
10269;SDS011;5180;50.832;5.390;2022-08-16T09:57:33;3.70;;;3.40;;
10269;SDS011;5180;50.832;5.390;2022-08-16T10:00:00;4.15;;;3.58;;
10269;SDS011;5180;50.832;5.390;2022-08-16T10:02:26;3.50;;;3.08;;
10269;SDS011;5180;50.832;5.390;2022-08-16T10:04:53;4.78;;;3.15;;
10269;SDS011;5180;50.832;5.390;2022-08-16T10:07:21;6.78;;;3.65;;
10269;SDS011;5180;50.832;5.390;2022-08-16T10:09:48;6.88;;;3.40;;
10269;SDS011;5180;50.832;5.390;2022-08-16T10:12:14;4.53;;;3.60;;
10269;SDS011;5180;50.832;5.390;2022-08-16T10:14:58;3.85;;;3.10;;
10269;SDS011;5180;50.832;5.390;2022-08-16T10:17:23;3.15;;;2.85;;
10269;SDS011;5180;50.832;5.390;2022-08-16T10:19:50;3.50;;;3.17;;
10269;SDS011;5180;50.832;5.390;2022-08-16T10:22:19;3.97;;;3.10;;
10269;SDS011;5180;50.832;5.390;2022-08-16T10:24:45;3.70;;;3.40;;
10269;SDS011;5180;50.832;5.390;2022-08-16T10:27:11;3.65;;;3.00;;
10269;SDS011;5180;50.832;5.390;2022-08-16T10:29:36;6.70;;;3.70;;
10269;SDS011;5180;50.832;5.390;2022-08-16T10:32:03;4.30;;;2.97;;
10269;SDS011;5180;50.832;5.390;2022-08-16T10:34:28;6.45;;;3.65;;
10269;SDS011;5180;50.832;5.390;2022-08-16T10:36:54;3.30;;;3.00;;
10269;SDS011;5180;50.832;5.390;2022-08-16T10:39:21;3.80;;;3.40;;
10269;SDS011;5180;50.832;5.390;2022-08-16T10:41:47;3.97;;;3.47;;
10269;SDS011;5180;50.832;5.390;2022-08-16T10:44:13;3.72;;;3.25;;
10269;SDS011;5180;50.832;5.390;2022-08-16T10:46:39;3.13;;;2.83;;
10269;SDS011;5180;50.832;5.390;2022-08-16T10:49:06;5.40;;;3.47;;
10269;SDS011;5180;50.832;5.390;2022-08-16T10:51:34;4.45;;;3.50;;
10269;SDS011;5180;50.832;5.390;2022-08-16T10:54:02;3.63;;;3.30;;
10269;SDS011;5180;50.832;5.390;2022-08-16T10:56:28;4.20;;;3.80;;
10269;SDS011;5180;50.832;5.390;2022-08-16T10:58:54;4.80;;;3.35;;
10269;SDS011;5180;50.832;5.390;2022-08-16T11:01:21;4.40;;;3.55;;
10269;SDS011;5180;50.832;5.390;2022-08-16T11:03:50;3.78;;;3.20;;
10269;SDS011;5180;50.832;5.390;2022-08-16T11:06:19;4.18;;;3.40;;
10269;SDS011;5180;50.832;5.390;2022-08-16T11:08:45;3.95;;;3.30;;
10269;SDS011;5180;50.832;5.390;2022-08-16T11:11:11;5.47;;;3.40;;
10269;SDS011;5180;50.832;5.390;2022-08-16T11:13:39;5.20;;;3.25;;
10269;SDS011;5180;50.832;5.390;2022-08-16T11:16:06;4.15;;;2.95;;
10269;SDS011;5180;50.832;5.390;2022-08-16T11:18:33;4.75;;;3.10;;
10269;SDS011;5180;50.832;5.390;2022-08-16T11:20:59;3.97;;;3.30;;
10269;SDS011;5180;50.832;5.390;2022-08-16T11:23:25;4.22;;;3.08;;
10269;SDS011;5180;50.832;5.390;2022-08-16T11:25:55;3.53;;;2.90;;
10269;SDS011;5180;50.832;5.390;2022-08-16T11:28:21;4.35;;;3.17;;
10269;SDS011;5180;50.832;5.390;2022-08-16T11:30:47;5.82;;;2.70;;
10269;SDS011;5180;50.832;5.390;2022-08-16T11:33:14;3.63;;;2.60;;
10269;SDS011;5180;50.832;5.390;2022-08-16T11:35:40;3.40;;;2.75;;
10269;SDS011;5180;50.832;5.390;2022-08-16T11:38:07;3.20;;;2.60;;
10269;SDS011;5180;50.832;5.390;2022-08-16T11:40:39;3.78;;;3.00;;
10269;SDS011;5180;50.832;5.390;2022-08-16T11:43:11;3.10;;;2.67;;
10269;SDS011;5180;50.832;5.390;2022-08-16T11:45:38;3.25;;;2.67;;
10269;SDS011;5180;50.832;5.390;2022-08-16T11:48:04;2.90;;;2.60;;
10269;SDS011;5180;50.832;5.390;2022-08-16T11:50:31;4.75;;;2.80;;
10269;SDS011;5180;50.832;5.390;2022-08-16T11:52:58;3.53;;;2.85;;
10269;SDS011;5180;50.832;5.390;2022-08-16T11:55:24;3.10;;;2.80;;
10269;SDS011;5180;50.832;5.390;2022-08-16T11:57:51;5.50;;;2.60;;
10269;SDS011;5180;50.832;5.390;2022-08-16T12:00:16;2.72;;;2.53;;
10269;SDS011;5180;50.832;5.390;2022-08-16T12:02:42;4.25;;;2.70;;
10269;SDS011;5180;50.832;5.390;2022-08-16T12:05:10;3.63;;;2.72;;
10269;SDS011;5180;50.832;5.390;2022-08-16T12:07:37;3.15;;;2.67;;
10269;SDS011;5180;50.832;5.390;2022-08-16T12:10:05;2.97;;;2.20;;
10269;SDS011;5180;50.832;5.390;2022-08-16T12:12:34;4.47;;;2.67;;
10269;SDS011;5180;50.832;5.390;2022-08-16T12:15:00;3.92;;;2.50;;
10269;SDS011;5180;50.832;5.390;2022-08-16T12:17:27;2.50;;;2.30;;
10269;SDS011;5180;50.832;5.390;2022-08-16T12:19:54;2.90;;;2.45;;
10269;SDS011;5180;50.832;5.390;2022-08-16T12:22:19;2.88;;;2.50;;
10269;SDS011;5180;50.832;5.390;2022-08-16T12:24:46;3.28;;;2.30;;
10269;SDS011;5180;50.832;5.390;2022-08-16T12:27:12;3.17;;;2.50;;
10269;SDS011;5180;50.832;5.390;2022-08-16T12:29:38;3.80;;;2.50;;
10269;SDS011;5180;50.832;5.390;2022-08-16T12:32:03;3.00;;;2.00;;
10269;SDS011;5180;50.832;5.390;2022-08-16T12:34:29;2.95;;;2.22;;
10269;SDS011;5180;50.832;5.390;2022-08-16T12:36:55;3.13;;;2.17;;
10269;SDS011;5180;50.832;5.390;2022-08-16T12:39:22;3.08;;;2.22;;
10269;SDS011;5180;50.832;5.390;2022-08-16T12:41:47;2.58;;;2.35;;
10269;SDS011;5180;50.832;5.390;2022-08-16T12:44:13;2.95;;;2.30;;
10269;SDS011;5180;50.832;5.390;2022-08-16T12:46:39;2.65;;;2.45;;
10269;SDS011;5180;50.832;5.390;2022-08-16T12:49:05;3.97;;;2.95;;
10269;SDS011;5180;50.832;5.390;2022-08-16T12:51:36;2.95;;;2.70;;
10269;SDS011;5180;50.832;5.390;2022-08-16T12:54:05;4.95;;;2.65;;
10269;SDS011;5180;50.832;5.390;2022-08-16T12:56:34;2.85;;;2.55;;
10269;SDS011;5180;50.832;5.390;2022-08-16T12:59:04;3.72;;;2.90;;
10269;SDS011;5180;50.832;5.390;2022-08-16T13:01:36;3.80;;;2.63;;
10269;SDS011;5180;50.832;5.390;2022-08-16T13:04:04;3.35;;;2.85;;
10269;SDS011;5180;50.832;5.390;2022-08-16T13:06:31;4.30;;;2.72;;
10269;SDS011;5180;50.832;5.390;2022-08-16T13:08:57;3.88;;;3.10;;
10269;SDS011;5180;50.832;5.390;2022-08-16T13:11:33;5.18;;;2.80;;
10269;SDS011;5180;50.832;5.390;2022-08-16T13:14:04;7.72;;;3.30;;
10269;SDS011;5180;50.832;5.390;2022-08-16T13:16:30;3.85;;;3.00;;
10269;SDS011;5180;50.832;5.390;2022-08-16T13:18:55;3.95;;;3.15;;
10269;SDS011;5180;50.832;5.390;2022-08-16T13:21:21;5.22;;;3.28;;
10269;SDS011;5180;50.832;5.390;2022-08-16T13:23:50;3.28;;;2.97;;
10269;SDS011;5180;50.832;5.390;2022-08-16T13:26:16;3.97;;;3.05;;
10269;SDS011;5180;50.832;5.390;2022-08-16T13:28:42;3.58;;;3.10;;
10269;SDS011;5180;50.832;5.390;2022-08-16T13:31:07;3.85;;;3.17;;
10269;SDS011;5180;50.832;5.390;2022-08-16T13:33:33;5.15;;;2.92;;
10269;SDS011;5180;50.832;5.390;2022-08-16T13:36:02;3.33;;;2.90;;
10269;SDS011;5180;50.832;5.390;2022-08-16T13:38:33;3.30;;;3.00;;
10269;SDS011;5180;50.832;5.390;2022-08-16T13:41:00;4.72;;;3.47;;
10269;SDS011;5180;50.832;5.390;2022-08-16T13:43:27;3.17;;;2.80;;
10269;SDS011;5180;50.832;5.390;2022-08-16T13:45:55;3.30;;;3.00;;
10269;SDS011;5180;50.832;5.390;2022-08-16T13:48:22;3.10;;;2.80;;
10269;SDS011;5180;50.832;5.390;2022-08-16T13:50:49;3.40;;;3.00;;
10269;SDS011;5180;50.832;5.390;2022-08-16T13:53:14;3.38;;;2.90;;
10269;SDS011;5180;50.832;5.390;2022-08-16T13:55:40;2.72;;;2.50;;
10269;SDS011;5180;50.832;5.390;2022-08-16T13:58:06;3.65;;;2.75;;
10269;SDS011;5180;50.832;5.390;2022-08-16T14:00:32;3.38;;;2.58;;
10269;SDS011;5180;50.832;5.390;2022-08-16T14:02:58;3.50;;;2.92;;
10269;SDS011;5180;50.832;5.390;2022-08-16T14:05:23;5.72;;;2.78;;
10269;SDS011;5180;50.832;5.390;2022-08-16T14:07:49;3.05;;;2.75;;
10269;SDS011;5180;50.832;5.390;2022-08-16T14:10:15;5.03;;;2.63;;
10269;SDS011;5180;50.832;5.390;2022-08-16T14:12:40;4.70;;;2.70;;
10269;SDS011;5180;50.832;5.390;2022-08-16T14:15:09;3.83;;;3.03;;
10269;SDS011;5180;50.832;5.390;2022-08-16T14:17:36;3.60;;;2.78;;
10269;SDS011;5180;50.832;5.390;2022-08-16T14:20:03;6.38;;;3.05;;
10269;SDS011;5180;50.832;5.390;2022-08-16T14:22:31;3.20;;;2.88;;
10269;SDS011;5180;50.832;5.390;2022-08-16T14:24:59;3.92;;;2.85;;
10269;SDS011;5180;50.832;5.390;2022-08-16T14:27:27;3.30;;;3.00;;
10269;SDS011;5180;50.832;5.390;2022-08-16T14:29:55;5.20;;;2.95;;
10269;SDS011;5180;50.832;5.390;2022-08-16T14:32:22;3.45;;;3.15;;
10269;SDS011;5180;50.832;5.390;2022-08-16T14:34:50;4.20;;;3.05;;
10269;SDS011;5180;50.832;5.390;2022-08-16T14:37:18;3.38;;;2.80;;
10269;SDS011;5180;50.832;5.390;2022-08-16T14:39:44;6.82;;;3.10;;
10269;SDS011;5180;50.832;5.390;2022-08-16T14:42:12;3.42;;;2.90;;
10269;SDS011;5180;50.832;5.390;2022-08-16T14:44:41;3.53;;;2.90;;
10269;SDS011;5180;50.832;5.390;2022-08-16T14:47:08;3.45;;;3.15;;
10269;SDS011;5180;50.832;5.390;2022-08-16T14:49:33;3.55;;;2.80;;
10269;SDS011;5180;50.832;5.390;2022-08-16T14:52:04;4.93;;;3.05;;